createdAt,value
2023-03-05T00:01:35.488Z,100216.63
2023-03-05T00:04:05.289Z,100211.78
2023-03-05T00:06:34.285Z,100215.31
2023-03-05T00:09:02.633Z,100211.53
2023-03-05T00:11:33.667Z,100202.84
2023-03-05T00:14:03.882Z,100198.88
2023-03-05T00:16:32.140Z,100210.97
2023-03-05T00:19:00.799Z,100208.41
2023-03-05T00:21:38.434Z,100205.84
2023-03-05T00:24:15.457Z,100199.03
2023-03-05T00:26:43.427Z,100200.97
2023-03-05T00:29:18.610Z,100195.31
2023-03-05T00:31:48.927Z,100186.72
2023-03-05T00:34:18.722Z,100181.72
2023-03-05T00:36:52.103Z,100188.66
2023-03-05T00:39:22.235Z,100185.84
2023-03-05T00:41:50.473Z,100172.50
2023-03-05T00:44:19.717Z,100174.50
2023-03-05T00:46:46.726Z,100170.50
2023-03-05T00:49:13.730Z,100163.47
2023-03-05T00:51:44.189Z,100167.91
2023-03-05T00:54:11.104Z,100165.91
2023-03-05T00:56:39.993Z,100159.19
2023-03-05T00:59:10.354Z,100158.00
2023-03-05T01:01:37.361Z,100173.44
2023-03-05T01:04:04.352Z,100165.44
2023-03-05T01:06:31.211Z,100161.53
2023-03-05T01:08:59.353Z,100158.78
2023-03-05T01:11:28.315Z,100158.69
2023-03-05T01:13:57.194Z,100165.84
2023-03-05T01:16:27.681Z,100167.47
2023-03-05T01:18:58.442Z,100160.00
2023-03-05T01:21:26.252Z,100153.94
2023-03-05T01:23:54.025Z,100159.38
2023-03-05T01:26:21.260Z,100161.28
2023-03-05T01:28:48.235Z,100157.13
2023-03-05T01:31:15.349Z,100167.47
2023-03-05T01:33:42.222Z,100174.06
2023-03-05T01:36:15.029Z,100163.16
2023-03-05T01:38:43.303Z,100170.81
2023-03-05T01:41:11.364Z,100177.94
2023-03-05T01:43:38.712Z,100176.44
2023-03-05T01:46:22.145Z,100183.63
2023-03-05T01:49:10.806Z,100180.50
2023-03-05T01:51:43.210Z,100163.91
2023-03-05T01:54:13.982Z,100173.59
2023-03-05T01:56:42.390Z,100171.50
2023-03-05T01:59:09.452Z,100179.38
2023-03-05T02:01:46.366Z,100177.31
2023-03-05T02:04:17.444Z,100173.50
2023-03-05T02:06:45.650Z,100171.63
2023-03-05T02:09:13.788Z,100177.72
2023-03-05T02:11:41.581Z,100189.28
2023-03-05T02:14:10.268Z,100182.34
2023-03-05T02:16:38.938Z,100175.81
2023-03-05T02:19:10.677Z,100184.03
2023-03-05T02:21:45.089Z,100174.00
2023-03-05T02:24:14.094Z,100182.19
2023-03-05T02:26:44.929Z,100177.06
2023-03-05T02:29:18.686Z,100186.47
2023-03-05T02:31:46.460Z,100182.13
2023-03-05T02:34:17.191Z,100182.03
2023-03-05T02:36:44.082Z,100177.69
2023-03-05T02:39:10.905Z,100177.25
2023-03-05T02:41:38.044Z,100186.13
2023-03-05T02:44:05.135Z,100176.38
2023-03-05T02:46:32.884Z,100180.41
2023-03-05T02:49:01.861Z,100175.25
2023-03-05T02:51:28.774Z,100178.13
2023-03-05T02:53:55.791Z,100175.03
2023-03-05T02:56:22.735Z,100172.81
2023-03-05T02:58:49.615Z,100173.22
2023-03-05T03:01:16.618Z,100172.53
2023-03-05T03:03:43.422Z,100179.25
2023-03-05T03:06:10.361Z,100182.16
2023-03-05T03:08:37.623Z,100185.31
2023-03-05T03:11:12.663Z,100189.72
2023-03-05T03:13:41.681Z,100183.09
2023-03-05T03:16:14.639Z,100181.00
2023-03-05T03:18:42.938Z,100173.22
2023-03-05T03:21:16.172Z,100181.00
2023-03-05T03:23:43.862Z,100184.97
2023-03-05T03:26:11.558Z,100180.28
2023-03-05T03:28:38.355Z,100176.94
2023-03-05T03:31:06.490Z,100171.25
2023-03-05T03:33:34.148Z,100178.06
2023-03-05T03:36:01.153Z,100173.34
2023-03-05T03:38:28.149Z,100173.19
2023-03-05T03:40:55.265Z,100176.72
2023-03-05T03:43:22.173Z,100175.75
2023-03-05T03:45:49.162Z,100170.06
2023-03-05T03:48:16.237Z,100174.25
2023-03-05T03:50:44.835Z,100171.16
2023-03-05T03:53:14.770Z,100171.09
2023-03-05T03:55:46.608Z,100162.88
2023-03-05T03:58:14.148Z,100157.47
2023-03-05T04:00:42.440Z,100161.34
2023-03-05T04:03:09.878Z,100165.25
2023-03-05T04:05:36.818Z,100167.88
2023-03-05T04:08:04.281Z,100170.25
2023-03-05T04:10:32.049Z,100171.97
2023-03-05T04:12:58.956Z,100160.84
2023-03-05T04:15:26.344Z,100159.31
2023-03-05T04:17:53.204Z,100152.06
2023-03-05T04:20:20.295Z,100156.38
2023-03-05T04:22:47.202Z,100152.22
2023-03-05T04:25:16.909Z,100158.81
2023-03-05T04:27:43.817Z,100163.84
2023-03-05T04:30:17.697Z,100162.69
2023-03-05T04:32:44.421Z,100165.13
2023-03-05T04:35:11.568Z,100169.44
2023-03-05T04:37:38.436Z,100167.00
2023-03-05T04:40:06.853Z,100156.63
2023-03-05T04:42:34.528Z,100159.31
2023-03-05T04:45:01.422Z,100170.84
2023-03-05T04:47:28.256Z,100163.19
2023-03-05T04:49:58.069Z,100161.75
2023-03-05T04:52:25.302Z,100174.31
2023-03-05T04:54:54.598Z,100166.56
2023-03-05T04:57:23.120Z,100173.84
2023-03-05T04:59:50.813Z,100172.28
2023-03-05T05:02:17.873Z,100171.53
2023-03-05T05:04:45.971Z,100171.34
2023-03-05T05:07:15.504Z,100166.66
2023-03-05T05:09:42.376Z,100171.94
2023-03-05T05:12:10.645Z,100166.66
2023-03-05T05:14:38.174Z,100176.34
2023-03-05T05:17:05.946Z,100177.84
2023-03-05T05:19:34.084Z,100178.69
2023-03-05T05:22:01.371Z,100178.69
2023-03-05T05:24:28.341Z,100176.13
2023-03-05T05:26:55.945Z,100180.84
2023-03-05T05:29:23.470Z,100188.00
2023-03-05T05:31:50.483Z,100181.56
2023-03-05T05:34:17.414Z,100184.53
2023-03-05T05:36:44.234Z,100188.38
2023-03-05T05:39:11.192Z,100189.28
2023-03-05T05:41:38.812Z,100195.94
2023-03-05T05:44:05.604Z,100210.16
2023-03-05T05:46:33.415Z,100216.22
2023-03-05T05:49:00.461Z,100218.88
2023-03-05T05:51:27.605Z,100219.81
2023-03-05T05:53:54.484Z,100220.91
2023-03-05T05:56:22.331Z,100220.69
2023-03-05T05:58:49.522Z,100222.50
2023-03-05T06:01:32.058Z,100225.53
2023-03-05T06:04:00.217Z,100214.78
2023-03-05T06:06:29.474Z,100217.63
2023-03-05T06:08:59.004Z,100216.34
2023-03-05T06:11:27.853Z,100224.72
2023-03-05T06:13:55.834Z,100224.53
2023-03-05T06:16:25.973Z,100219.81
2023-03-05T06:18:53.532Z,100230.47
2023-03-05T06:21:23.963Z,100230.13
2023-03-05T06:23:51.304Z,100234.38
2023-03-05T06:26:21.136Z,100233.34
2023-03-05T06:28:47.989Z,100235.38
2023-03-05T06:31:18.059Z,100236.84
2023-03-05T06:33:45.970Z,100234.03
2023-03-05T06:36:17.637Z,100239.84
2023-03-05T06:38:48.916Z,100245.81
2023-03-05T06:41:22.783Z,100252.00
2023-03-05T06:43:55.660Z,100249.47
2023-03-05T06:46:34.646Z,100250.53
2023-03-05T06:49:04.017Z,100243.53
2023-03-05T06:51:35.013Z,100244.09
2023-03-05T06:54:05.334Z,100256.28
2023-03-05T06:56:32.399Z,100244.41
2023-03-05T06:59:01.091Z,100253.53
2023-03-05T07:01:28.068Z,100257.97
2023-03-05T07:03:59.040Z,100247.09
2023-03-05T07:06:32.336Z,100246.72
2023-03-05T07:09:02.372Z,100245.56
2023-03-05T07:11:30.286Z,100240.22
2023-03-05T07:14:00.083Z,100243.56
2023-03-05T07:16:30.905Z,100249.44
2023-03-05T07:19:00.657Z,100249.09
2023-03-05T07:21:30.370Z,100247.34
2023-03-05T07:24:00.787Z,100246.00
2023-03-05T07:26:31.100Z,100243.44
2023-03-05T07:28:58.088Z,100252.75
2023-03-05T07:31:31.076Z,100242.34
2023-03-05T07:34:01.389Z,100246.66
2023-03-05T07:36:30.097Z,100243.44
2023-03-05T07:38:57.391Z,100250.91
2023-03-05T07:41:24.409Z,100246.00
2023-03-05T07:43:53.715Z,100253.66
2023-03-05T07:46:24.760Z,100260.97
2023-03-05T07:48:52.886Z,100269.75
2023-03-05T07:51:20.733Z,100258.88
2023-03-05T07:53:49.582Z,100256.94
2023-03-05T07:56:25.136Z,100251.00
2023-03-05T07:58:53.261Z,100248.31
2023-03-05T08:01:21.316Z,100252.44
2023-03-05T08:03:48.358Z,100252.84
2023-03-05T08:06:15.447Z,100258.16
2023-03-05T08:08:42.988Z,100261.84
2023-03-05T08:11:13.604Z,100247.03
2023-03-05T08:13:43.074Z,100263.88
2023-03-05T08:16:17.165Z,100249.94
2023-03-05T08:18:45.786Z,100255.94
2023-03-05T08:21:21.732Z,100241.03
2023-03-05T08:23:50.576Z,100246.25
2023-03-05T08:26:22.471Z,100240.56
2023-03-05T08:28:52.785Z,100241.25
2023-03-05T08:31:24.388Z,100240.28
2023-03-05T08:33:54.238Z,100233.97
2023-03-05T08:36:22.352Z,100235.34
2023-03-05T08:38:50.733Z,100230.16
2023-03-05T08:41:20.099Z,100236.31
2023-03-05T08:43:47.998Z,100235.91
2023-03-05T08:46:16.006Z,100238.38
2023-03-05T08:48:43.902Z,100223.53
2023-03-05T08:51:16.267Z,100219.09
2023-03-05T08:53:45.901Z,100226.34
2023-03-05T08:56:16.855Z,100222.97
2023-03-05T08:58:46.592Z,100226.59
2023-03-05T09:01:15.810Z,100207.88
2023-03-05T09:03:43.536Z,100213.50
2023-03-05T09:06:12.707Z,100217.53
2023-03-05T09:08:41.560Z,100206.50
2023-03-05T09:11:12.792Z,100205.72
2023-03-05T09:13:40.763Z,100200.00
2023-03-05T09:16:12.606Z,100190.72
2023-03-05T09:18:41.210Z,100183.66
2023-03-05T09:21:13.088Z,100191.88
2023-03-05T09:23:40.670Z,100201.41
2023-03-05T09:26:12.359Z,100199.19
2023-03-05T09:28:40.864Z,100211.13
2023-03-05T09:31:10.020Z,100200.97
2023-03-05T09:33:38.437Z,100209.28
2023-03-05T09:36:23.904Z,100197.16
2023-03-05T09:38:52.005Z,100203.44
2023-03-05T09:41:21.508Z,100208.94
2023-03-05T09:43:56.942Z,100209.88
2023-03-05T09:46:44.393Z,100202.38
2023-03-05T09:49:29.836Z,100211.97
2023-03-05T09:52:03.560Z,100210.75
2023-03-05T09:54:41.828Z,100201.41
2023-03-05T09:57:18.671Z,100210.16
2023-03-05T10:00:00.010Z,100194.66
2023-03-05T10:02:36.319Z,100202.69
2023-03-05T10:05:42.166Z,100199.97
2023-03-05T10:08:11.774Z,100187.19
2023-03-05T10:10:47.701Z,100196.84
2023-03-05T10:13:24.863Z,100185.22
2023-03-05T10:16:27.840Z,100191.38
2023-03-05T10:19:18.039Z,100184.47
2023-03-05T10:21:44.819Z,100182.78
2023-03-05T10:24:40.993Z,100181.31
2023-03-05T10:27:14.888Z,100176.00
2023-03-05T10:30:12.989Z,100165.66
2023-03-05T10:32:56.232Z,100166.44
2023-03-05T10:35:23.940Z,100166.97
2023-03-05T10:38:22.810Z,100164.38
2023-03-05T10:40:54.588Z,100174.41
2023-03-05T10:43:27.061Z,100161.25
2023-03-05T10:45:57.283Z,100167.84
2023-03-05T10:48:42.294Z,100164.84
2023-03-05T10:51:27.638Z,100164.38
2023-03-05T10:53:59.344Z,100151.63
2023-03-05T10:56:29.722Z,100152.00
2023-03-05T10:58:57.883Z,100147.63
2023-03-05T11:01:28.334Z,100134.00
2023-03-05T11:04:29.900Z,100134.53
2023-03-05T11:06:57.689Z,100130.00
2023-03-05T11:09:29.944Z,100120.09
2023-03-05T11:12:12.454Z,100116.97
2023-03-05T11:15:00.370Z,100104.50
2023-03-05T11:17:34.066Z,100110.22
2023-03-05T11:20:29.581Z,100103.91
2023-03-05T11:23:14.578Z,100102.00
2023-03-05T11:25:59.090Z,100098.78
2023-03-05T11:28:36.652Z,100102.31
2023-03-05T11:31:18.632Z,100087.75
2023-03-05T11:34:04.628Z,100093.44
2023-03-05T11:37:04.760Z,100084.66
2023-03-05T11:40:05.986Z,100082.06
2023-03-05T11:42:34.259Z,100079.63
2023-03-05T11:45:04.403Z,100082.84
2023-03-05T11:47:45.880Z,100070.03
2023-03-05T11:50:26.864Z,100068.69
2023-03-05T11:53:04.335Z,100050.47
2023-03-05T11:56:04.159Z,100046.75
2023-03-05T11:58:50.645Z,100051.28
2023-03-05T12:01:21.359Z,100045.59
2023-03-05T12:03:50.873Z,100040.16
2023-03-05T12:06:21.824Z,100036.28
2023-03-05T12:08:55.378Z,100037.19
2023-03-05T12:11:33.304Z,100038.81
2023-03-05T12:14:20.092Z,100040.88
2023-03-05T12:17:00.592Z,100030.34
2023-03-05T12:19:54.403Z,100030.63
2023-03-05T12:22:24.502Z,100034.19
2023-03-05T12:24:52.899Z,100032.00
2023-03-05T12:27:37.229Z,100026.94
2023-03-05T12:30:05.604Z,100043.06
2023-03-05T12:32:33.363Z,100020.38
2023-03-05T12:35:29.600Z,100020.91
2023-03-05T12:38:01.721Z,100022.13
2023-03-05T12:40:31.186Z,100022.91
2023-03-05T12:43:05.955Z,100017.44
2023-03-05T12:45:36.028Z,100016.59
2023-03-05T12:48:03.010Z,100021.72
2023-03-05T12:50:30.752Z,100011.66
2023-03-05T12:52:59.690Z,100018.63
2023-03-05T12:55:33.697Z,100011.34
2023-03-05T12:58:10.414Z,100001.28
2023-03-05T13:00:49.656Z,99999.84
2023-03-05T13:03:26.480Z,99995.88
2023-03-05T13:05:56.474Z,99990.78
2023-03-05T13:08:27.257Z,99981.41
2023-03-05T13:11:06.461Z,99983.94
2023-03-05T13:13:37.684Z,99981.38
2023-03-05T13:16:06.157Z,99983.13
2023-03-05T13:18:33.595Z,99975.88
2023-03-05T13:21:21.060Z,99970.66
2023-03-05T13:23:58.230Z,99975.78
2023-03-05T13:26:35.752Z,99980.91
2023-03-05T13:29:18.575Z,99981.81
2023-03-05T13:31:54.622Z,99978.34
2023-03-05T13:34:40.802Z,99975.56
2023-03-05T13:37:18.809Z,99980.16
2023-03-05T13:39:57.139Z,99981.44
2023-03-05T13:42:31.381Z,99977.25
2023-03-05T13:45:01.540Z,99973.88
2023-03-05T13:47:32.360Z,99972.50
2023-03-05T13:50:06.964Z,99971.03
2023-03-05T13:52:38.892Z,99976.78
2023-03-05T13:55:16.888Z,99962.06
2023-03-05T13:57:51.453Z,99948.97
2023-03-05T14:00:39.233Z,99961.94
2023-03-05T14:03:23.147Z,99959.22
2023-03-05T14:05:52.177Z,99961.41
2023-03-05T14:08:25.520Z,99944.47
2023-03-05T14:10:57.701Z,99955.59
2023-03-05T14:13:27.965Z,99953.09
2023-03-05T14:16:08.098Z,99940.22
2023-03-05T14:18:36.273Z,99941.28
2023-03-05T14:21:08.975Z,99939.72
2023-03-05T14:23:46.028Z,99938.22
2023-03-05T14:26:29.303Z,99941.53
2023-03-05T14:29:18.580Z,99944.19
2023-03-05T14:31:53.592Z,99945.03
2023-03-05T14:34:42.977Z,99938.97
2023-03-05T14:37:35.928Z,99943.19
2023-03-05T14:40:20.659Z,99949.50
2023-03-05T14:42:57.806Z,99944.31
2023-03-05T14:45:34.523Z,99935.44
2023-03-05T14:48:04.568Z,99935.50
2023-03-05T14:50:43.119Z,99927.25
2023-03-05T14:53:15.889Z,99928.34
2023-03-05T14:55:51.228Z,99933.88
2023-03-05T14:58:21.832Z,99929.59
2023-03-05T15:00:51.287Z,99928.22
2023-03-05T15:03:22.071Z,99917.41
2023-03-05T15:05:52.862Z,99922.69
2023-03-05T15:08:28.146Z,99927.72
2023-03-05T15:10:57.909Z,99918.63
2023-03-05T15:13:27.616Z,99910.78
2023-03-05T15:15:56.510Z,99922.22
2023-03-05T15:18:25.748Z,99915.09
2023-03-05T15:20:53.520Z,99919.66
2023-03-05T15:23:21.644Z,99921.19
2023-03-05T15:25:48.734Z,99917.91
2023-03-05T15:28:18.524Z,99917.28
2023-03-05T15:30:47.335Z,99929.44
2023-03-05T15:33:17.389Z,99928.03
2023-03-05T15:35:45.363Z,99924.41
2023-03-05T15:38:16.775Z,99927.97
2023-03-05T15:40:47.138Z,99923.50
2023-03-05T15:43:15.211Z,99913.44
2023-03-05T15:45:42.539Z,99921.56
2023-03-05T15:48:10.299Z,99920.19
2023-03-05T15:50:39.832Z,99918.03
2023-03-05T15:53:09.391Z,99920.72
2023-03-05T15:55:40.935Z,99914.00
2023-03-05T15:58:09.449Z,99907.31
2023-03-05T16:00:39.732Z,99910.06
2023-03-05T16:03:06.880Z,99912.56
2023-03-05T16:05:35.684Z,99911.84
2023-03-05T16:08:04.320Z,99902.41
2023-03-05T16:10:33.623Z,99909.81
2023-03-05T16:13:04.720Z,99914.06
2023-03-05T16:15:35.567Z,99909.91
2023-03-05T16:18:08.218Z,99911.63
2023-03-05T16:20:36.464Z,99910.56
2023-03-05T16:23:05.844Z,99922.78
2023-03-05T16:25:34.954Z,99919.31
2023-03-05T16:28:03.984Z,99915.34
2023-03-05T16:30:33.260Z,99912.19
2023-03-05T16:33:02.184Z,99913.28
2023-03-05T16:35:30.271Z,99922.72
2023-03-05T16:37:58.351Z,99914.13
2023-03-05T16:40:34.200Z,99923.72
2023-03-05T16:43:06.604Z,99930.59
2023-03-05T16:45:35.422Z,99930.19
2023-03-05T16:48:03.262Z,99930.75
2023-03-05T16:50:30.152Z,99925.88
2023-03-05T16:52:57.109Z,99929.44
2023-03-05T16:55:25.052Z,99924.78
2023-03-05T16:57:52.872Z,99936.41
2023-03-05T17:00:24.749Z,99938.09
2023-03-05T17:02:52.780Z,99933.41
2023-03-05T17:05:20.749Z,99942.19
2023-03-05T17:07:48.593Z,99939.41
2023-03-05T17:10:18.877Z,99941.50
2023-03-05T17:12:47.563Z,99945.91
2023-03-05T17:15:16.112Z,99947.09
2023-03-05T17:17:43.965Z,99936.50
2023-03-05T17:20:13.276Z,99949.69
2023-03-05T17:22:41.476Z,99951.75
2023-03-05T17:25:09.541Z,99948.84
2023-03-05T17:27:38.404Z,99954.63
2023-03-05T17:30:08.324Z,99953.09
2023-03-05T17:32:36.377Z,99940.47
2023-03-05T17:35:05.384Z,99947.72
2023-03-05T17:37:34.519Z,99943.50
2023-03-05T17:40:01.477Z,99947.66
2023-03-05T17:42:28.520Z,99939.88
2023-03-05T17:44:56.383Z,99945.19
2023-03-05T17:47:26.491Z,99938.78
2023-03-05T17:49:54.355Z,99934.72
2023-03-05T17:52:23.736Z,99937.63
2023-03-05T17:54:53.254Z,99938.72
2023-03-05T17:57:21.912Z,99935.53
2023-03-05T17:59:49.750Z,99939.09
2023-03-05T18:02:17.913Z,99940.94
2023-03-05T18:04:44.769Z,99936.91
2023-03-05T18:07:11.712Z,99943.22
2023-03-05T18:09:40.314Z,99948.66
2023-03-05T18:12:07.506Z,99942.72
2023-03-05T18:14:35.383Z,99942.06
2023-03-05T18:17:02.438Z,99931.75
2023-03-05T18:19:30.277Z,99932.50
2023-03-05T18:21:58.057Z,99947.97
2023-03-05T18:24:25.950Z,99938.38
2023-03-05T18:26:53.697Z,99945.38
2023-03-05T18:29:22.518Z,99947.75
2023-03-05T18:31:51.138Z,99950.38
2023-03-05T18:34:21.144Z,99947.84
2023-03-05T18:36:49.321Z,99948.69
2023-03-05T18:39:18.890Z,99944.31
2023-03-05T18:41:47.403Z,99939.13
2023-03-05T18:44:15.527Z,99940.13
2023-03-05T18:46:43.519Z,99941.72
2023-03-05T18:49:12.248Z,99940.75
2023-03-05T18:51:42.004Z,99946.06
2023-03-05T18:54:10.280Z,99945.88
2023-03-05T18:56:38.094Z,99953.13
2023-03-05T18:59:05.313Z,99951.13
2023-03-05T19:01:33.194Z,99950.31
2023-03-05T19:04:00.321Z,99949.47
2023-03-05T19:06:27.410Z,99954.66
2023-03-05T19:09:29.222Z,99952.78
2023-03-05T19:11:57.101Z,99951.25
2023-03-05T19:14:25.171Z,99950.59
2023-03-05T19:16:52.941Z,99949.75
2023-03-05T19:19:24.383Z,99943.97
2023-03-05T19:21:54.173Z,99949.75
2023-03-05T19:24:24.225Z,99946.06
2023-03-05T19:26:55.481Z,99951.72
2023-03-05T19:29:26.861Z,99950.44
2023-03-05T19:31:54.808Z,99945.56
2023-03-05T19:34:22.612Z,99957.00
2023-03-05T19:36:51.234Z,99954.47
2023-03-05T19:39:20.008Z,99961.47
2023-03-05T19:41:47.868Z,99964.06
2023-03-05T19:44:15.680Z,99959.72
2023-03-05T19:46:43.639Z,99966.03
2023-03-05T19:49:11.753Z,99964.31
2023-03-05T19:51:42.288Z,99970.38
2023-03-05T19:54:11.217Z,99957.72
2023-03-05T19:56:41.613Z,99971.59
2023-03-05T19:59:10.347Z,99965.31
2023-03-05T20:01:37.818Z,99957.06
2023-03-05T20:04:06.301Z,99961.47
2023-03-05T20:06:34.009Z,99963.84
2023-03-05T20:09:02.209Z,99963.03
2023-03-05T20:11:30.034Z,99966.47
2023-03-05T20:13:59.238Z,99963.19
2023-03-05T20:16:30.095Z,99964.94
2023-03-05T20:18:58.882Z,99957.81
2023-03-05T20:21:29.375Z,99956.97
2023-03-05T20:23:58.910Z,99957.53
2023-03-05T20:26:27.737Z,99963.81
2023-03-05T20:28:57.249Z,99962.88
2023-03-05T20:31:27.999Z,99960.75
2023-03-05T20:33:57.859Z,99960.91
2023-03-05T20:36:25.965Z,99966.44
2023-03-05T20:38:55.929Z,99968.69
2023-03-05T20:41:23.931Z,99964.44
2023-03-05T20:43:52.425Z,99971.06
2023-03-05T20:46:28.123Z,99963.03
2023-03-05T20:48:59.293Z,99967.59
2023-03-05T20:51:35.361Z,99965.41
2023-03-05T20:54:10.650Z,99957.78
2023-03-05T20:56:39.092Z,99963.91
2023-03-05T20:59:09.033Z,99968.97
2023-03-05T21:01:40.068Z,99965.78
2023-03-05T21:04:07.871Z,99969.28
2023-03-05T21:06:35.718Z,99958.28
2023-03-05T21:09:03.954Z,99967.19
2023-03-05T21:11:32.388Z,99968.44
2023-03-05T21:13:59.545Z,99963.56
2023-03-05T21:16:28.346Z,99963.88
2023-03-05T21:18:58.032Z,99964.03
2023-03-05T21:21:25.366Z,99960.22
2023-03-05T21:23:53.711Z,99956.03
2023-03-05T21:26:21.976Z,99959.50
2023-03-05T21:28:51.637Z,99964.47
2023-03-05T21:31:22.674Z,99968.25
2023-03-05T21:33:50.529Z,99961.03
2023-03-05T21:36:20.106Z,99951.22
2023-03-05T21:38:48.543Z,99958.84
2023-03-05T21:41:18.746Z,99960.81
2023-03-05T21:43:46.612Z,99949.81
2023-03-05T21:46:15.081Z,99952.59
2023-03-05T21:48:42.748Z,99953.81
2023-03-05T21:51:21.911Z,99941.53
2023-03-05T21:53:50.355Z,99938.75
2023-03-05T21:56:25.558Z,99945.16
2023-03-05T21:58:54.232Z,99936.97
2023-03-05T22:01:22.236Z,99939.75
2023-03-05T22:03:50.318Z,99943.19
2023-03-05T22:06:19.500Z,99933.16
2023-03-05T22:08:49.224Z,99924.94
2023-03-05T22:11:18.630Z,99925.16
2023-03-05T22:13:47.387Z,99920.16
2023-03-05T22:16:26.796Z,99921.69
2023-03-05T22:18:56.442Z,99923.94
2023-03-05T22:21:27.432Z,99914.75
2023-03-05T22:23:58.895Z,99913.38
2023-03-05T22:26:35.658Z,99908.50
2023-03-05T22:29:04.821Z,99914.84
2023-03-05T22:31:32.611Z,99910.34
2023-03-05T22:34:00.350Z,99913.22
2023-03-05T22:36:28.043Z,99909.88
2023-03-05T22:38:55.729Z,99920.56
2023-03-05T22:41:23.431Z,99916.22
2023-03-05T22:43:51.747Z,99908.84
2023-03-05T22:46:23.239Z,99917.97
2023-03-05T22:48:53.614Z,99921.72
2023-03-05T22:51:22.516Z,99910.41
2023-03-05T22:53:49.675Z,99913.97
2023-03-05T22:56:19.446Z,99919.34
2023-03-05T22:58:46.749Z,99911.75
2023-03-05T23:01:21.728Z,99911.91
2023-03-05T23:04:33.264Z,99907.44
2023-03-05T23:07:00.454Z,99909.66
2023-03-05T23:09:28.169Z,99908.31
2023-03-05T23:11:56.217Z,99909.59
2023-03-05T23:14:23.248Z,99893.34
2023-03-05T23:16:51.097Z,99893.44
2023-03-05T23:19:18.992Z,99897.00
2023-03-05T23:21:45.963Z,99890.19
2023-03-05T23:24:14.817Z,99892.84
2023-03-05T23:26:43.422Z,99891.13
2023-03-05T23:29:11.377Z,99889.44
2023-03-05T23:31:39.261Z,99881.69
2023-03-05T23:34:07.067Z,99883.38
2023-03-05T23:36:53.490Z,99887.63
2023-03-05T23:39:21.301Z,99885.00
2023-03-05T23:41:48.981Z,99880.66
2023-03-05T23:44:16.856Z,99884.16
2023-03-05T23:46:43.717Z,99884.63
2023-03-05T23:49:10.949Z,99887.25
2023-03-05T23:51:38.725Z,99889.72
2023-03-05T23:54:06.645Z,99896.66
2023-03-05T23:56:34.636Z,99897.22
2023-03-05T23:59:01.796Z,99894.13
